Time;durP1;ratioP1;P1;durP2;ratioP2;P2;SDS_P1;SDS_P2;PMS_P1;PMS_P2;Temp;Humidity;BMP_temperature;BMP_pressure;BME280_temperature;BME280_humidity;BME280_pressure;Samples;Min_cycle;Max_cycle;Signal;HPM_P1;HPM_P2
2022/09/05 00:01:27;;;;;;;;;1.67;1.67;;;;;;;;4997079;28;45384;-88
2022/09/05 00:04:12;;;;;;;;;1.33;1.33;;;;;;;;5008642;28;45483;-86
2022/09/05 00:06:43;;;;;;;;;1.67;1.67;;;;;;;;5017848;28;45751;-86
2022/09/05 00:09:18;;;;;;;;;1.67;1.67;;;;;;;;5003727;28;45808;-88
2022/09/05 00:11:46;;;;;;;;;2.00;2.00;;;;;;;;5013256;28;45524;-85
2022/09/05 00:14:31;;;;;;;;;2.00;2.00;;;;;;;;4998625;28;47117;-84
2022/09/05 00:17:15;;;;;;;;;1.00;1.00;;;;;;;;5004465;28;45753;-84
2022/09/05 00:19:51;;;;;;;;;2.67;2.67;;;;;;;;5015500;28;45674;-85
2022/09/05 00:22:25;;;;;;;;;3.00;3.00;;;;;;;;5029528;28;45742;-84
2022/09/05 00:25:09;;;;;;;;;1.00;1.00;;;;;;;;5033414;28;45512;-85
2022/09/05 00:27:53;;;;;;;;;2.67;2.00;;;;;;;;5018645;28;45743;-87
2022/09/05 00:30:19;;;;;;;;;3.00;2.00;;;;;;;;5025335;28;45443;-86
2022/09/05 00:32:53;;;;;;;;;3.00;2.00;;;;;;;;5035160;28;45312;-84
2022/09/05 00:35:38;;;;;;;;;3.00;2.00;;;;;;;;5015869;28;47559;-86
2022/09/05 00:38:18;;;;;;;;;4.00;3.00;;;;;;;;5021595;28;45683;-84
2022/09/05 00:40:46;;;;;;;;;2.00;2.00;;;;;;;;5021244;28;45510;-86
2022/09/05 00:43:13;;;;;;;;;2.00;2.00;;;;;;;;5003799;28;46006;-85
2022/09/05 00:45:47;;;;;;;;;3.33;2.00;;;;;;;;5040159;28;47807;-85
2022/09/05 00:48:22;;;;;;;;;3.00;2.00;;;;;;;;5011392;28;45464;-86
2022/09/05 00:51:04;;;;;;;;;3.00;3.00;;;;;;;;5017770;28;45598;-87
2022/09/05 00:53:41;;;;;;;;;1.67;1.67;;;;;;;;5015760;28;45357;-87
2022/09/05 00:56:26;;;;;;;;;3.00;2.00;;;;;;;;5029712;28;46248;-86
2022/09/05 00:59:04;;;;;;;;;5.00;2.00;;;;;;;;4999968;28;45519;-87
2022/09/05 01:01:36;;;;;;;;;2.00;2.00;;;;;;;;5030474;28;45273;-87
2022/09/05 01:04:15;;;;;;;;;0.67;0.67;;;;;;;;5035734;28;45343;-86
2022/09/05 01:07:01;;;;;;;;;2.00;2.00;;;;;;;;5032750;28;46325;-86
2022/09/05 01:09:45;;;;;;;;;1.33;1.33;;;;;;;;5003411;28;45605;-87
2022/09/05 01:12:14;;;;;;;;;4.33;3.00;;;;;;;;5019283;28;45380;-87
2022/09/05 01:14:46;;;;;;;;;3.00;3.00;;;;;;;;5026656;28;45518;-89
2022/09/05 01:17:21;;;;;;;;;2.67;2.67;;;;;;;;5008533;28;47233;-86
2022/09/05 01:19:46;;;;;;;;;2.00;2.00;;;;;;;;5024586;28;45463;-86
2022/09/05 01:22:29;;;;;;;;;1.33;1.33;;;;;;;;5008651;28;45736;-85
2022/09/05 01:25:13;;;;;;;;;1.00;1.00;;;;;;;;5006644;28;45721;-86
2022/09/05 01:27:39;;;;;;;;;2.00;2.00;;;;;;;;5019590;28;47439;-85
2022/09/05 01:30:14;;;;;;;;;2.33;2.33;;;;;;;;5019326;28;45577;-83
2022/09/05 01:32:48;;;;;;;;;3.00;2.00;;;;;;;;5002296;28;45339;-86
2022/09/05 01:35:32;;;;;;;;;2.00;2.00;;;;;;;;4990109;28;45364;-85
2022/09/05 01:38:05;;;;;;;;;3.00;2.00;;;;;;;;5002791;28;47924;-84
2022/09/05 01:40:42;;;;;;;;;5.33;3.67;;;;;;;;5031203;28;45395;-84
2022/09/05 01:43:26;;;;;;;;;5.33;4.00;;;;;;;;5005595;28;45460;-85
2022/09/05 01:46:10;;;;;;;;;3.00;2.00;;;;;;;;5022710;28;45712;-85
2022/09/05 01:48:49;;;;;;;;;0.67;0.67;;;;;;;;5015212;28;45714;-85
2022/09/05 01:51:22;;;;;;;;;3.00;3.00;;;;;;;;5033296;28;45652;-84
2022/09/05 01:53:52;;;;;;;;;1.67;1.67;;;;;;;;5019713;28;45554;-86
2022/09/05 01:56:36;;;;;;;;;1.00;1.00;;;;;;;;5031998;28;45685;-86
2022/09/05 01:59:05;;;;;;;;;1.00;1.00;;;;;;;;5022009;28;46911;-85
2022/09/05 02:01:47;;;;;;;;;1.00;1.00;;;;;;;;5037978;28;45833;-86
2022/09/05 02:04:13;;;;;;;;;2.00;2.00;;;;;;;;5020151;28;45605;-85
2022/09/05 02:06:57;;;;;;;;;1.00;1.00;;;;;;;;5017732;28;46117;-84
2022/09/05 02:09:26;;;;;;;;;2.00;2.00;;;;;;;;5010274;28;46315;-86
2022/09/05 02:12:01;;;;;;;;;4.33;2.00;;;;;;;;5028994;28;45518;-87
2022/09/05 02:15:05;;;;;;;;;1.00;1.00;;;;;;;;5022561;28;44823;-86
2022/09/05 02:17:40;;;;;;;;;5.33;3.00;;;;;;;;4970512;28;45590;-86
2022/09/05 02:20:19;;;;;;;;;2.67;2.67;;;;;;;;4957549;28;45492;-86
2022/09/05 02:22:57;;;;;;;;;2.33;2.33;;;;;;;;4995847;28;45397;-84
2022/09/05 02:25:29;;;;;;;;;3.33;2.67;;;;;;;;5008829;28;45302;-85
2022/09/05 02:27:55;;;;;;;;;3.00;3.00;;;;;;;;5014253;28;45625;-88
2022/09/05 02:30:24;;;;;;;;;4.00;2.33;;;;;;;;5007566;28;46290;-84
2022/09/05 02:32:49;;;;;;;;;4.00;4.00;;;;;;;;5021549;28;45769;-85
2022/09/05 02:35:38;;;;;;;;;4.33;3.33;;;;;;;;5027371;28;45952;-85
2022/09/05 02:38:15;;;;;;;;;3.00;2.00;;;;;;;;5032130;28;45446;-88
2022/09/05 02:40:53;;;;;;;;;1.00;1.00;;;;;;;;5008020;28;46110;-86
2022/09/05 02:43:34;;;;;;;;;3.00;3.00;;;;;;;;5031889;28;45445;-83
2022/09/05 02:46:19;;;;;;;;;2.00;2.00;;;;;;;;5021723;28;45367;-84
2022/09/05 02:49:00;;;;;;;;;3.00;3.00;;;;;;;;5023410;28;45460;-85
2022/09/05 02:51:33;;;;;;;;;2.00;2.00;;;;;;;;4999634;28;47362;-83
2022/09/05 02:54:09;;;;;;;;;2.00;2.00;;;;;;;;5021531;28;45440;-84
2022/09/05 02:56:41;;;;;;;;;2.33;2.33;;;;;;;;5004658;28;45520;-85
2022/09/05 02:59:09;;;;;;;;;4.00;2.00;;;;;;;;5029613;28;45359;-86
2022/09/05 03:01:41;;;;;;;;;3.00;3.00;;;;;;;;5013494;28;47138;-83
2022/09/05 03:04:06;;;;;;;;;4.00;3.00;;;;;;;;5006971;28;45815;-85
2022/09/05 03:06:35;;;;;;;;;2.67;1.67;;;;;;;;5018606;28;45480;-84
2022/09/05 03:09:21;;;;;;;;;2.33;2.33;;;;;;;;5004208;28;45504;-85
2022/09/05 03:12:08;;;;;;;;;4.33;2.33;;;;;;;;5014356;28;46815;-85
2022/09/05 03:14:52;;;;;;;;;2.00;2.00;;;;;;;;5014561;28;45327;-84
2022/09/05 03:17:46;;;;;;;;;2.33;1.33;;;;;;;;5024930;28;45504;-81
2022/09/05 03:20:31;;;;;;;;;2.00;2.00;;;;;;;;5001325;28;46992;-84
2022/09/05 03:23:05;;;;;;;;;2.00;2.00;;;;;;;;5038393;28;46401;-83
2022/09/05 03:25:37;;;;;;;;;4.33;2.67;;;;;;;;5022576;28;45626;-83
2022/09/05 03:28:25;;;;;;;;;4.00;3.00;;;;;;;;5014550;28;45456;-81
2022/09/05 03:31:27;;;;;;;;;3.00;3.00;;;;;;;;5018811;28;45620;-83
2022/09/05 03:34:02;;;;;;;;;4.00;2.33;;;;;;;;4889373;28;46580;-82
2022/09/05 03:36:28;;;;;;;;;2.67;2.67;;;;;;;;5005725;28;45629;-82
2022/09/05 03:39:12;;;;;;;;;3.00;3.00;;;;;;;;5019692;28;45504;-81
2022/09/05 03:41:48;;;;;;;;;4.00;4.00;;;;;;;;5020938;28;45520;-83
2022/09/05 03:44:13;;;;;;;;;4.00;4.00;;;;;;;;5015979;28;46713;-83
2022/09/05 03:47:11;;;;;;;;;2.00;2.00;;;;;;;;5021768;28;45918;-85
2022/09/05 03:49:36;;;;;;;;;4.67;3.67;;;;;;;;4988560;28;45535;-80
2022/09/05 03:52:24;;;;;;;;;2.00;2.00;;;;;;;;5000315;28;45797;-81
2022/09/05 03:54:50;;;;;;;;;1.00;1.00;;;;;;;;5023005;28;46000;-83
2022/09/05 03:57:21;;;;;;;;;1.67;1.67;;;;;;;;5009114;28;45352;-83
2022/09/05 03:59:47;;;;;;;;;1.67;1.67;;;;;;;;4999973;28;45564;-81
2022/09/05 04:02:18;;;;;;;;;1.00;1.00;;;;;;;;5007029;28;46140;-80
2022/09/05 04:05:04;;;;;;;;;3.00;2.00;;;;;;;;4998798;28;48174;-82
2022/09/05 04:07:33;;;;;;;;;3.00;1.67;;;;;;;;4993446;28;45501;-81
2022/09/05 04:10:02;;;;;;;;;4.00;2.00;;;;;;;;5014311;28;45395;-81
2022/09/05 04:12:35;;;;;;;;;3.67;3.67;;;;;;;;5029018;28;45739;-82
2022/09/05 04:15:04;;;;;;;;;2.00;2.00;;;;;;;;5030431;28;46187;-82
2022/09/05 04:17:32;;;;;;;;;1.00;1.00;;;;;;;;5009179;28;45860;-79
2022/09/05 04:20:11;;;;;;;;;15.67;15.00;;;;;;;;5015826;28;45522;-79
2022/09/05 04:22:57;;;;;;;;;5.00;4.00;;;;;;;;4995348;28;46746;-81
2022/09/05 04:25:49;;;;;;;;;4.00;4.00;;;;;;;;5018752;28;45737;-79
2022/09/05 04:28:33;;;;;;;;;5.33;4.00;;;;;;;;5013206;28;45759;-80
2022/09/05 04:31:11;;;;;;;;;4.00;3.00;;;;;;;;5018204;28;45825;-82
2022/09/05 04:33:52;;;;;;;;;2.33;2.00;;;;;;;;5024759;28;45923;-82
2022/09/05 04:36:27;;;;;;;;;7.00;4.00;;;;;;;;5027085;28;46187;-82
2022/09/05 04:39:11;;;;;;;;;3.67;2.00;;;;;;;;5024294;28;45867;-81
2022/09/05 04:41:45;;;;;;;;;5.00;5.00;;;;;;;;5030430;28;45836;-80
2022/09/05 04:44:14;;;;;;;;;7.00;4.67;;;;;;;;5022917;28;45356;-80
2022/09/05 04:47:06;;;;;;;;;13.67;9.00;;;;;;;;4997112;28;46355;-81
2022/09/05 04:49:39;;;;;;;;;6.33;6.33;;;;;;;;5002944;28;45712;-82
2022/09/05 04:52:23;;;;;;;;;2.67;1.33;;;;;;;;5012287;28;45879;-81
2022/09/05 04:55:01;;;;;;;;;4.33;3.33;;;;;;;;5024030;28;45923;-84
2022/09/05 04:57:34;;;;;;;;;7.00;5.00;;;;;;;;5022304;28;45569;-84
2022/09/05 05:00:00;;;;;;;;;7.33;3.67;;;;;;;;5021594;28;46045;-82
2022/09/05 05:02:46;;;;;;;;;4.00;4.00;;;;;;;;5021268;28;45578;-82
2022/09/05 05:05:23;;;;;;;;;6.33;3.33;;;;;;;;5030503;28;45529;-84
2022/09/05 05:07:56;;;;;;;;;6.33;3.00;;;;;;;;5009487;28;46730;-84
2022/09/05 05:10:36;;;;;;;;;6.00;4.33;;;;;;;;5000891;28;45506;-81
2022/09/05 05:13:25;;;;;;;;;5.00;4.00;;;;;;;;5001659;28;45372;-88
2022/09/05 05:15:53;;;;;;;;;5.00;4.00;;;;;;;;5024852;28;45765;-80
2022/09/05 05:18:47;;;;;;;;;4.67;4.67;;;;;;;;5014268;28;45441;-88
2022/09/05 05:21:23;;;;;;;;;7.00;5.00;;;;;;;;5031555;28;45415;-89
2022/09/05 05:24:01;;;;;;;;;5.00;3.67;;;;;;;;5040911;28;45410;-87
2022/09/05 05:29:55;;;;;;;;;;;;;;;;;;;;;
2022/09/05 05:32:32;;;;;;;;;7.33;6.33;;;;;;;;5026226;28;72866;-87
2022/09/05 05:35:28;;;;;;;;;9.33;7.67;;;;;;;;5014569;28;45491;-90
2022/09/05 05:38:07;;;;;;;;;9.67;6.33;;;;;;;;4976137;28;45890;-78
2022/09/05 05:40:34;;;;;;;;;8.00;6.33;;;;;;;;5003289;28;46953;-82
2022/09/05 05:43:13;;;;;;;;;8.67;6.67;;;;;;;;5004310;28;45577;-82
2022/09/05 05:45:41;;;;;;;;;9.00;6.33;;;;;;;;4990758;28;45514;-82
2022/09/05 05:48:10;;;;;;;;;8.67;7.67;;;;;;;;5004390;28;46474;-80
2022/09/05 05:50:54;;;;;;;;;10.33;9.67;;;;;;;;5006212;28;46692;-82
2022/09/05 05:53:25;;;;;;;;;8.00;7.00;;;;;;;;5004759;28;46469;-83
2022/09/05 05:55:53;;;;;;;;;8.33;7.33;;;;;;;;5000954;28;45849;-82
2022/09/05 05:58:37;;;;;;;;;11.33;9.33;;;;;;;;5004407;28;45858;-82
2022/09/05 06:01:22;;;;;;;;;14.33;10.33;;;;;;;;4989090;28;46348;-83
2022/09/05 06:04:01;;;;;;;;;9.00;7.67;;;;;;;;4981732;28;45480;-83
2022/09/05 06:06:36;;;;;;;;;8.00;6.67;;;;;;;;5000866;28;45939;-81
2022/09/05 06:09:14;;;;;;;;;10.00;8.67;;;;;;;;4983946;28;45701;-82
2022/09/05 06:11:54;;;;;;;;;10.33;8.00;;;;;;;;5003406;28;45859;-80
2022/09/05 06:14:38;;;;;;;;;14.00;10.33;;;;;;;;5001728;28;45604;-82
2022/09/05 06:17:04;;;;;;;;;12.33;8.67;;;;;;;;5003562;28;46347;-82
2022/09/05 06:19:48;;;;;;;;;10.33;9.33;;;;;;;;5014059;28;45631;-81
2022/09/05 06:22:13;;;;;;;;;10.33;8.33;;;;;;;;4990261;28;48864;-81
2022/09/05 06:24:45;;;;;;;;;13.67;7.33;;;;;;;;5014241;28;45859;-80
2022/09/05 06:27:29;;;;;;;;;7.00;7.00;;;;;;;;4986243;28;44913;-81
2022/09/05 06:30:04;;;;;;;;;8.67;8.67;;;;;;;;4998229;28;45422;-83
2022/09/05 06:32:51;;;;;;;;;9.00;7.00;;;;;;;;4999169;28;45462;-84
2022/09/05 06:35:23;;;;;;;;;6.00;5.00;;;;;;;;5010540;28;45781;-83
2022/09/05 06:38:09;;;;;;;;;6.67;6.00;;;;;;;;5016206;28;45450;-84
2022/09/05 06:40:37;;;;;;;;;7.33;7.33;;;;;;;;5026706;28;45406;-79
2022/09/05 06:43:14;;;;;;;;;10.00;5.33;;;;;;;;5013708;28;46451;-78
2022/09/05 06:45:58;;;;;;;;;4.33;4.00;;;;;;;;5017978;28;45811;-82
2022/09/05 06:48:33;;;;;;;;;4.33;4.00;;;;;;;;5019975;28;45548;-82
2022/09/05 06:51:17;;;;;;;;;5.00;5.00;;;;;;;;4994807;28;45967;-83
2022/09/05 06:53:57;;;;;;;;;5.00;5.00;;;;;;;;5022891;28;46428;-79
2022/09/05 06:56:41;;;;;;;;;6.67;5.33;;;;;;;;5031260;28;45916;-81
2022/09/05 06:59:33;;;;;;;;;6.33;5.33;;;;;;;;5004934;28;45828;-81
2022/09/05 07:02:13;;;;;;;;;4.00;4.00;;;;;;;;5024501;28;45450;-78
2022/09/05 07:04:41;;;;;;;;;8.67;8.67;;;;;;;;5002077;28;47931;-79
2022/09/05 07:07:34;;;;;;;;;4.33;4.33;;;;;;;;4994762;28;45449;-80
2022/09/05 07:10:06;;;;;;;;;5.00;5.00;;;;;;;;5000741;28;45708;-80
2022/09/05 07:12:41;;;;;;;;;10.00;6.00;;;;;;;;5028633;28;45497;-79
2022/09/05 07:15:26;;;;;;;;;5.33;5.33;;;;;;;;5008417;28;47032;-79
2022/09/05 07:18:00;;;;;;;;;8.00;5.50;;;;;;;;5024008;28;45872;-78
2022/09/05 07:20:34;;;;;;;;;4.67;4.67;;;;;;;;5028415;28;45466;-79
2022/09/05 07:23:03;;;;;;;;;5.25;4.75;;;;;;;;5021574;28;45452;-78
2022/09/05 07:25:29;;;;;;;;;2.50;2.50;;;;;;;;4996710;28;48368;-77
2022/09/05 07:27:55;;;;;;;;;3.00;3.00;;;;;;;;5012700;28;45552;-77
2022/09/05 07:30:20;;;;;;;;;4.33;4.00;;;;;;;;5010521;28;45955;-80
2022/09/05 07:32:54;;;;;;;;;3.00;3.00;;;;;;;;5029310;28;45571;-77
2022/09/05 07:35:33;;;;;;;;;3.00;3.00;;;;;;;;5028106;28;45942;-79
2022/09/05 07:38:01;;;;;;;;;3.75;3.75;;;;;;;;5028401;28;45475;-78
2022/09/05 07:40:28;;;;;;;;;3.33;3.33;;;;;;;;5010241;28;45801;-79
2022/09/05 07:43:00;;;;;;;;;5.25;4.25;;;;;;;;5019057;28;45479;-79
2022/09/05 07:45:28;;;;;;;;;7.00;4.67;;;;;;;;5014230;28;45399;-78
2022/09/05 07:48:10;;;;;;;;;4.33;4.33;;;;;;;;4993999;28;45524;-78
2022/09/05 07:50:45;;;;;;;;;2.75;2.75;;;;;;;;5023400;28;45769;-79
2022/09/05 07:53:13;;;;;;;;;3.67;3.67;;;;;;;;5019223;28;45622;-79
2022/09/05 07:55:41;;;;;;;;;5.00;4.00;;;;;;;;5019593;28;47286;-79
2022/09/05 07:58:10;;;;;;;;;3.00;3.00;;;;;;;;5026378;28;45429;-78
2022/09/05 08:00:36;;;;;;;;;5.25;3.75;;;;;;;;5026038;28;45776;-78
2022/09/05 08:03:08;;;;;;;;;5.00;4.00;;;;;;;;5023055;28;45814;-78
2022/09/05 08:05:38;;;;;;;;;3.50;3.50;;;;;;;;5028614;28;45803;-78
2022/09/05 08:08:08;;;;;;;;;5.00;4.00;;;;;;;;4994654;28;45400;-79
2022/09/05 08:10:43;;;;;;;;;4.00;4.00;;;;;;;;5013512;28;45726;-78
2022/09/05 08:13:11;;;;;;;;;3.00;3.00;;;;;;;;5021409;28;45475;-77
2022/09/05 08:15:40;;;;;;;;;3.00;3.00;;;;;;;;5015416;28;45793;-81
2022/09/05 08:18:33;;;;;;;;;5.00;4.00;;;;;;;;5031823;28;45516;-81
2022/09/05 08:21:12;;;;;;;;;3.00;3.00;;;;;;;;4996526;28;45302;-82
2022/09/05 08:23:43;;;;;;;;;3.33;3.00;;;;;;;;5014656;28;45789;-83
2022/09/05 08:26:11;;;;;;;;;2.00;2.00;;;;;;;;5000540;28;46577;-77
2022/09/05 08:28:55;;;;;;;;;3.75;3.00;;;;;;;;5026559;28;45678;-81
2022/09/05 08:31:33;;;;;;;;;4.00;4.00;;;;;;;;5033118;28;45359;-80
2022/09/05 08:34:01;;;;;;;;;5.00;3.33;;;;;;;;5025676;28;45769;-82
2022/09/05 08:36:42;;;;;;;;;4.00;4.00;;;;;;;;5037413;28;45563;-78
2022/09/05 08:39:10;;;;;;;;;3.00;3.00;;;;;;;;5021607;28;45822;-79
2022/09/05 08:41:44;;;;;;;;;3.00;3.00;;;;;;;;5018128;28;45924;-78
2022/09/05 08:44:28;;;;;;;;;4.00;4.00;;;;;;;;5028898;28;45696;-78
2022/09/05 08:46:58;;;;;;;;;3.75;3.00;;;;;;;;5010031;28;46289;-77
2022/09/05 08:49:30;;;;;;;;;4.00;4.00;;;;;;;;5032031;28;45426;-78
2022/09/05 08:52:21;;;;;;;;;3.75;3.75;;;;;;;;5026621;28;45426;-79
2022/09/05 08:54:55;;;;;;;;;5.67;4.00;;;;;;;;4988826;28;46277;-81
2022/09/05 08:57:39;;;;;;;;;3.00;2.00;;;;;;;;5020108;28;45835;-81
2022/09/05 09:00:07;;;;;;;;;3.33;3.33;;;;;;;;5009623;28;45637;-80
2022/09/05 09:02:47;;;;;;;;;4.00;4.00;;;;;;;;5012078;28;45385;-78
2022/09/05 09:05:18;;;;;;;;;4.00;4.00;;;;;;;;5027216;28;45988;-76
2022/09/05 09:07:43;;;;;;;;;4.50;4.50;;;;;;;;5032433;28;45513;-81
2022/09/05 09:10:27;;;;;;;;;3.75;3.75;;;;;;;;5026977;28;45566;-77
2022/09/05 09:12:52;;;;;;;;;3.50;3.50;;;;;;;;5032222;28;45983;-78
2022/09/05 09:15:21;;;;;;;;;3.50;3.50;;;;;;;;5037852;28;45757;-79
2022/09/05 09:17:48;;;;;;;;;4.00;4.00;;;;;;;;5017745;28;45864;-79
2022/09/05 09:20:35;;;;;;;;;4.33;4.00;;;;;;;;5033790;28;45463;-76
2022/09/05 09:23:03;;;;;;;;;4.75;4.75;;;;;;;;5027651;28;45642;-77
2022/09/05 09:25:39;;;;;;;;;3.00;3.00;;;;;;;;5011659;28;45870;-79
2022/09/05 09:28:23;;;;;;;;;2.33;2.33;;;;;;;;5009451;28;45931;-79
2022/09/05 09:30:57;;;;;;;;;3.75;3.00;;;;;;;;5008766;28;45813;-79
2022/09/05 09:33:28;;;;;;;;;3.00;3.00;;;;;;;;5011576;28;45695;-80
2022/09/05 09:36:05;;;;;;;;;2.75;2.75;;;;;;;;5016034;28;45838;-81
2022/09/05 09:38:45;;;;;;;;;3.00;2.00;;;;;;;;5021168;28;45624;-79
2022/09/05 09:41:16;;;;;;;;;3.00;3.00;;;;;;;;5009739;28;45431;-78
2022/09/05 09:43:46;;;;;;;;;2.50;2.50;;;;;;;;5020105;28;45626;-81
2022/09/05 09:46:29;;;;;;;;;2.00;2.00;;;;;;;;5026002;28;45846;-79
2022/09/05 09:49:06;;;;;;;;;2.00;2.00;;;;;;;;5012168;28;48013;-78
2022/09/05 09:51:51;;;;;;;;;2.00;2.00;;;;;;;;5015685;28;45809;-79
2022/09/05 09:54:35;;;;;;;;;3.00;3.00;;;;;;;;5018532;28;45440;-78
2022/09/05 09:57:19;;;;;;;;;3.00;1.25;;;;;;;;5010464;28;46812;-79
2022/09/05 10:00:07;;;;;;;;;2.00;2.00;;;;;;;;5032551;28;46918;-78
2022/09/05 10:02:55;;;;;;;;;3.25;2.00;;;;;;;;5008685;28;45481;-79
2022/09/05 10:05:39;;;;;;;;;1.25;1.25;;;;;;;;5030633;28;45509;-80
2022/09/05 10:08:14;;;;;;;;;1.00;1.00;;;;;;;;5030291;28;45721;-80
2022/09/05 10:10:40;;;;;;;;;1.75;1.75;;;;;;;;5021607;28;46722;-79
2022/09/05 10:13:08;;;;;;;;;1.25;1.25;;;;;;;;5037110;28;45541;-80
2022/09/05 10:16:04;;;;;;;;;2.00;2.00;;;;;;;;5032414;28;45411;-82
2022/09/05 10:18:37;;;;;;;;;2.00;2.00;;;;;;;;5019892;28;45763;-79
2022/09/05 10:21:18;;;;;;;;;2.00;2.00;;;;;;;;5004804;28;47150;-80
2022/09/05 10:23:46;;;;;;;;;1.25;1.25;;;;;;;;5018282;28;45931;-79
2022/09/05 10:26:40;;;;;;;;;2.00;2.00;;;;;;;;5003054;28;45982;-86
2022/09/05 10:29:10;;;;;;;;;1.00;1.00;;;;;;;;5028788;28;45460;-78
2022/09/05 10:31:58;;;;;;;;;2.75;2.75;;;;;;;;5026165;28;47052;-78
2022/09/05 10:34:32;;;;;;;;;2.00;1.00;;;;;;;;5019603;28;45793;-85
2022/09/05 10:37:08;;;;;;;;;1.00;1.00;;;;;;;;5036485;28;45611;-84
2022/09/05 10:39:36;;;;;;;;;2.50;1.00;;;;;;;;5028659;28;45927;-84
2022/09/05 10:42:11;;;;;;;;;1.00;1.00;;;;;;;;5033863;28;45640;-84
2022/09/05 10:44:39;;;;;;;;;1.00;1.00;;;;;;;;5036671;28;45621;-84
2022/09/05 10:47:25;;;;;;;;;2.33;1.00;;;;;;;;5048946;28;45363;-84
2022/09/05 10:50:15;;;;;;;;;1.00;1.00;;;;;;;;5039907;28;45400;-87
2022/09/05 10:52:49;;;;;;;;;1.00;1.00;;;;;;;;4984613;28;46884;-78
2022/09/05 10:55:18;;;;;;;;;1.33;1.00;;;;;;;;5024457;28;45524;-82
2022/09/05 10:58:11;;;;;;;;;2.33;2.00;;;;;;;;5006353;28;45401;-80
2022/09/05 11:00:50;;;;;;;;;1.00;1.00;;;;;;;;5009160;28;45828;-78
2022/09/05 11:03:30;;;;;;;;;2.75;2.00;;;;;;;;4999187;28;47018;-83
2022/09/05 11:06:22;;;;;;;;;2.00;2.00;;;;;;;;5014711;28;45438;-80
2022/09/05 11:09:02;;;;;;;;;2.00;2.00;;;;;;;;5000250;28;45829;-83
2022/09/05 11:11:33;;;;;;;;;1.25;1.25;;;;;;;;5021494;28;45772;-80
2022/09/05 11:14:33;;;;;;;;;;;;;;;;;;;;;
2022/09/05 11:17:29;;;;;;;;;;;;;;;;;;;;;
2022/09/05 11:20:04;;;;;;;;;1.00;1.00;;;;;;;;5007595;28;68118;-83
2022/09/05 12:04:51;;;;;;;;;3.00;2.00;;;;;;;;5020530;22;45760;-73
2022/09/05 12:07:22;;;;;;;;;0.25;0.25;;;;;;;;5036306;28;45710;-74
2022/09/05 12:10:06;;;;;;;;;2.25;1.00;;;;;;;;5038959;28;45788;-75
2022/09/05 12:12:34;;;;;;;;;1.50;1.50;;;;;;;;5039002;28;45413;-75
2022/09/05 12:15:10;;;;;;;;;1.75;1.00;;;;;;;;5039230;28;45752;-75
2022/09/05 12:18:02;;;;;;;;;1.25;1.25;;;;;;;;5037718;28;44987;-75
2022/09/05 12:20:31;;;;;;;;;0.00;0.00;;;;;;;;5037272;28;45791;-74
2022/09/05 12:23:08;;;;;;;;;0.75;0.75;;;;;;;;5018888;28;45662;-72
2022/09/05 12:25:35;;;;;;;;;0.50;0.50;;;;;;;;5038224;28;47892;-74
2022/09/05 12:28:06;;;;;;;;;0.25;0.25;;;;;;;;5039032;28;45757;-73
2022/09/05 12:30:34;;;;;;;;;2.25;2.25;;;;;;;;5038984;28;45529;-75
2022/09/05 12:33:09;;;;;;;;;1.00;1.00;;;;;;;;5038418;28;46243;-74
2022/09/05 12:36:02;;;;;;;;;1.00;1.00;;;;;;;;5038905;28;46210;-73
2022/09/05 12:38:36;;;;;;;;;1.50;0.50;;;;;;;;5028694;28;45948;-77
2022/09/05 12:41:14;;;;;;;;;1.00;1.00;;;;;;;;5030941;28;45708;-73
2022/09/05 12:44:00;;;;;;;;;2.00;1.75;;;;;;;;5038773;28;45803;-73
2022/09/05 12:46:45;;;;;;;;;0.25;0.25;;;;;;;;5020670;28;47855;-73
2022/09/05 12:49:19;;;;;;;;;1.00;1.00;;;;;;;;5036457;28;45727;-72
2022/09/05 12:51:54;;;;;;;;;2.50;2.50;;;;;;;;5038924;28;45349;-73
2022/09/05 12:54:46;;;;;;;;;1.75;1.25;;;;;;;;5038660;28;45435;-73
2022/09/05 12:57:11;;;;;;;;;3.75;2.00;;;;;;;;5038422;28;46129;-73
2022/09/05 12:59:39;;;;;;;;;1.25;1.25;;;;;;;;5032597;28;45381;-73
2022/09/05 13:02:07;;;;;;;;;1.00;1.00;;;;;;;;5032230;28;45745;-73
2022/09/05 13:04:43;;;;;;;;;2.00;1.75;;;;;;;;5039915;28;45745;-72
2022/09/05 13:07:17;;;;;;;;;2.50;2.50;;;;;;;;5053143;28;45686;-72
2022/09/05 13:09:58;;;;;;;;;1.50;1.50;;;;;;;;5058754;28;45712;-74
2022/09/05 13:12:35;;;;;;;;;1.25;1.25;;;;;;;;5053623;28;45515;-72
2022/09/05 13:15:02;;;;;;;;;3.25;3.00;;;;;;;;5029132;28;47220;-73
2022/09/05 13:17:49;;;;;;;;;2.25;2.00;;;;;;;;5055427;28;45562;-72
2022/09/05 13:20:17;;;;;;;;;2.00;2.00;;;;;;;;5037116;28;45402;-73
2022/09/05 13:22:45;;;;;;;;;1.25;1.25;;;;;;;;5055277;28;45393;-72
2022/09/05 13:25:17;;;;;;;;;1.50;1.50;;;;;;;;5054520;28;45512;-73
2022/09/05 13:27:45;;;;;;;;;1.75;1.75;;;;;;;;5054801;28;45345;-72
2022/09/05 13:30:12;;;;;;;;;2.25;2.25;;;;;;;;5054835;28;45570;-71
2022/09/05 13:32:42;;;;;;;;;2.00;2.00;;;;;;;;5028017;28;45445;-73
2022/09/05 13:35:24;;;;;;;;;1.75;1.75;;;;;;;;5052631;28;46293;-72
2022/09/05 13:38:05;;;;;;;;;2.00;2.00;;;;;;;;5053680;28;45419;-73
2022/09/05 13:40:34;;;;;;;;;2.00;2.00;;;;;;;;5053749;28;45775;-72
2022/09/05 13:43:10;;;;;;;;;3.75;2.00;;;;;;;;5055105;28;45506;-73
2022/09/05 13:45:54;;;;;;;;;2.00;2.00;;;;;;;;5055298;28;45618;-75
2022/09/05 13:48:26;;;;;;;;;2.25;2.25;;;;;;;;5054917;28;45473;-73
2022/09/05 13:50:54;;;;;;;;;2.00;2.00;;;;;;;;5037261;28;45758;-73
2022/09/05 13:53:25;;;;;;;;;3.00;3.00;;;;;;;;5054771;28;45680;-72
2022/09/05 13:55:57;;;;;;;;;2.25;2.25;;;;;;;;5054639;28;45526;-72
2022/09/05 13:58:42;;;;;;;;;3.00;3.00;;;;;;;;5054467;28;46069;-72
2022/09/05 14:01:16;;;;;;;;;3.25;2.75;;;;;;;;5036392;28;45432;-73
2022/09/05 14:04:11;;;;;;;;;3.50;3.00;;;;;;;;5054684;28;45468;-73
2022/09/05 14:06:51;;;;;;;;;4.00;2.25;;;;;;;;5004756;28;45483;-72
2022/09/05 14:09:34;;;;;;;;;3.50;3.00;;;;;;;;5054498;28;46123;-73
2022/09/05 14:12:10;;;;;;;;;2.50;2.50;;;;;;;;5054467;28;45359;-73
2022/09/05 14:14:36;;;;;;;;;3.00;3.00;;;;;;;;5054207;28;45787;-71
2022/09/05 14:17:04;;;;;;;;;6.00;3.75;;;;;;;;5053268;28;45875;-73
2022/09/05 14:22:31;;;;;;;;;4.00;3.33;;;;;;;;5053738;28;45358;-71
2022/09/05 14:24:57;;;;;;;;;2.75;2.00;;;;;;;;5053979;28;45398;-73
2022/09/05 14:27:23;;;;;;;;;2.75;2.75;;;;;;;;5053505;28;45535;-73
2022/09/05 14:29:52;;;;;;;;;3.67;3.00;;;;;;;;5053511;28;45565;-74
2022/09/05 14:32:17;;;;;;;;;2.00;2.00;;;;;;;;5053613;28;45646;-72
2022/09/05 14:34:46;;;;;;;;;2.00;2.00;;;;;;;;5053549;28;45577;-72
2022/09/05 14:37:12;;;;;;;;;4.25;4.25;;;;;;;;5053858;28;45526;-70
2022/09/05 14:39:56;;;;;;;;;3.00;2.00;;;;;;;;5052384;28;46486;-71
2022/09/05 14:42:51;;;;;;;;;3.00;3.00;;;;;;;;5052386;28;45448;-72
2022/09/05 14:45:19;;;;;;;;;3.00;3.00;;;;;;;;4975341;28;45470;-74
2022/09/05 14:47:53;;;;;;;;;2.00;2.00;;;;;;;;5049438;28;46053;-74
2022/09/05 14:50:30;;;;;;;;;3.75;2.00;;;;;;;;5053719;28;45496;-74
2022/09/05 14:53:00;;;;;;;;;3.33;2.00;;;;;;;;5049790;28;45846;-73
2022/09/05 14:55:26;;;;;;;;;3.00;3.00;;;;;;;;5035957;28;45409;-72
2022/09/05 14:57:51;;;;;;;;;3.00;3.00;;;;;;;;5051105;28;45701;-71
2022/09/05 15:00:20;;;;;;;;;3.67;3.67;;;;;;;;5055832;28;45847;-76
2022/09/05 15:03:14;;;;;;;;;2.25;2.25;;;;;;;;5058324;28;45364;-80
2022/09/05 15:05:49;;;;;;;;;5.00;5.00;;;;;;;;5056056;28;45468;-75
2022/09/05 15:08:23;;;;;;;;;2.67;2.00;;;;;;;;5028300;28;45475;-79
2022/09/05 15:10:55;;;;;;;;;2.00;2.00;;;;;;;;5054576;28;45760;-80
2022/09/05 15:13:24;;;;;;;;;3.00;3.00;;;;;;;;5052974;28;45588;-75
2022/09/05 15:15:51;;;;;;;;;4.00;4.00;;;;;;;;5057401;28;45566;-80
2022/09/05 15:18:20;;;;;;;;;5.00;4.00;;;;;;;;5056246;28;45454;-78
2022/09/05 15:20:52;;;;;;;;;3.00;3.00;;;;;;;;5055684;28;45494;-72
2022/09/05 15:23:21;;;;;;;;;7.00;4.00;;;;;;;;5055332;28;45312;-77
2022/09/05 15:26:01;;;;;;;;;5.00;5.00;;;;;;;;5054626;28;45770;-72
2022/09/05 15:28:30;;;;;;;;;4.67;2.67;;;;;;;;5054348;28;45398;-74
2022/09/05 15:31:03;;;;;;;;;3.33;3.33;;;;;;;;5037725;28;47306;-77
2022/09/05 15:33:29;;;;;;;;;4.00;4.00;;;;;;;;5026718;28;45683;-77
2022/09/05 15:35:55;;;;;;;;;3.67;2.33;;;;;;;;5051287;28;45756;-74
2022/09/05 15:38:37;;;;;;;;;3.50;3.50;;;;;;;;5050953;28;45407;-74
2022/09/05 15:41:06;;;;;;;;;4.33;4.33;;;;;;;;5052649;28;45412;-81
2022/09/05 15:43:32;;;;;;;;;3.50;3.50;;;;;;;;5033718;28;45426;-76
2022/09/05 15:46:02;;;;;;;;;3.00;3.00;;;;;;;;5053490;28;45597;-72
2022/09/05 15:48:29;;;;;;;;;6.00;5.00;;;;;;;;5050994;28;45976;-72
2022/09/05 15:50:56;;;;;;;;;3.50;3.50;;;;;;;;5048180;28;45721;-73
2022/09/05 15:53:23;;;;;;;;;5.33;3.67;;;;;;;;5043765;28;45346;-73
2022/09/05 15:55:49;;;;;;;;;4.00;3.25;;;;;;;;5034116;28;45494;-73
2022/09/05 15:58:16;;;;;;;;;3.75;3.00;;;;;;;;5017536;28;46489;-76
2022/09/05 16:00:45;;;;;;;;;4.50;4.50;;;;;;;;5008959;28;47454;-76
2022/09/05 16:03:20;;;;;;;;;3.67;3.67;;;;;;;;5009810;28;45974;-75
2022/09/05 16:06:02;;;;;;;;;4.00;4.00;;;;;;;;5052649;22;46266;-85
2022/09/05 16:08:39;;;;;;;;;5.00;5.00;;;;;;;;5053917;28;45451;-87
2022/09/05 16:11:48;;;;;;;;;8.00;6.33;;;;;;;;5066605;28;45401;-86
2022/09/05 16:14:47;;;;;;;;;5.67;5.67;;;;;;;;5060533;28;45411;-89
2022/09/05 16:17:32;;;;;;;;;5.00;5.00;;;;;;;;4964634;28;45510;-86
2022/09/05 16:20:28;;;;;;;;;5.00;5.00;;;;;;;;4991377;28;45433;-92
2022/09/05 16:23:10;;;;;;;;;5.67;4.00;;;;;;;;4972913;28;45520;-83
2022/09/05 16:25:43;;;;;;;;;4.33;3.00;;;;;;;;4989634;28;45668;-90
2022/09/05 16:31:28;;;;;;;;;3.00;3.00;;;;;;;;4971320;28;45820;-90